Time;durP1;ratioP1;P1;durP2;ratioP2;P2;SDS_P1;SDS_P2;PMS_P1;PMS_P2;Temp;Humidity;BMP_temperature;BMP_pressure;BME280_temperature;BME280_humidity;BME280_pressure;Samples;Min_cycle;Max_cycle;Signal;HPM_P1;HPM_P2
2022/10/21 00:02:19;;;;;;;12.40;2.72;;;21.70;99.90;;;;;;1888619;74;21147;-85
2022/10/21 00:05:11;;;;;;;8.68;2.08;;;21.70;99.90;;;;;;1891158;75;21084;-85
2022/10/21 00:10:41;;;;;;;10.63;2.92;;;21.90;99.90;;;;;;1935387;72;22527;-84
2022/10/21 00:13:34;;;;;;;12.58;2.52;;;21.90;99.90;;;;;;1908585;75;21111;-84
2022/10/21 00:16:25;;;;;;;10.00;2.65;;;22.10;99.90;;;;;;1898874;75;21091;-86
2022/10/21 00:19:17;;;;;;;11.57;2.58;;;22.20;99.90;;;;;;1887851;75;21063;-85
2022/10/21 00:22:10;;;;;;;10.32;2.47;;;22.30;99.90;;;;;;1879616;75;21566;-86
2022/10/21 00:25:01;;;;;;;11.65;2.62;;;22.20;99.90;;;;;;1889081;75;21117;-85
2022/10/21 00:27:53;;;;;;;13.13;2.65;;;22.30;99.90;;;;;;1905069;75;21106;-85
2022/10/21 00:30:46;;;;;;;12.37;2.75;;;22.50;99.90;;;;;;1884445;75;21137;-85
2022/10/21 00:36:19;;;;;;;13.50;2.70;;;22.50;99.90;;;;;;1953176;72;22182;-84
2022/10/21 00:39:10;;;;;;;10.65;2.27;;;22.50;99.90;;;;;;1939935;73;21204;-84
2022/10/21 00:42:01;;;;;;;10.95;2.65;;;22.50;99.90;;;;;;1921687;73;21169;-84
2022/10/21 00:48:07;;;;;;;11.12;2.60;;;22.70;99.90;;;;;;1942201;72;22100;-85
2022/10/21 00:51:02;;;;;;;13.25;2.95;;;22.80;99.90;;;;;;1895598;75;22420;-85
2022/10/21 00:53:54;;;;;;;11.18;2.40;;;22.90;99.90;;;;;;1879647;75;21067;-84
2022/10/21 00:59:40;;;;;;;12.28;2.52;;;23.00;99.90;;;;;;1964281;72;22232;-84
2022/10/21 01:02:32;;;;;;;14.15;2.95;;;22.90;99.90;;;;;;1910242;74;21055;-84
2022/10/21 01:05:23;;;;;;;12.58;2.92;;;22.80;99.90;;;;;;1916144;74;21076;-85
2022/10/21 01:08:14;;;;;;;12.65;2.58;;;22.70;99.90;;;;;;1905251;74;21131;-85
2022/10/21 01:11:09;;;;;;;8.60;2.50;;;22.70;99.90;;;;;;1905286;74;21055;-85
2022/10/21 01:14:33;;;;;;;10.88;2.30;;;22.80;99.90;;;;;;1918391;74;21054;-85
2022/10/21 01:17:35;;;;;;;12.75;3.17;;;22.80;99.90;;;;;;1916533;74;21197;-85
2022/10/21 01:20:54;;;;;;;12.65;2.35;;;22.80;99.90;;;;;;1927791;74;21100;-85
2022/10/21 01:24:32;;;;;;;11.20;2.83;;;22.80;99.90;;;;;;1927750;74;21166;-84
2022/10/21 01:27:36;;;;;;;17.40;2.90;;;22.80;99.90;;;;;;1904941;74;21120;-84
2022/10/21 01:30:48;;;;;;;10.82;2.20;;;22.70;99.90;;;;;;1907620;74;21170;-84
2022/10/21 01:33:45;;;;;;;10.08;2.77;;;22.70;99.90;;;;;;1919998;74;21074;-84
2022/10/21 01:39:25;;;;;;;11.22;2.58;;;22.70;99.90;;;;;;1938565;72;22672;-84
2022/10/21 01:44:58;;;;;;;12.75;2.87;;;23.00;99.90;;;;;;1930342;72;22228;-84
2022/10/21 01:50:34;;;;;;;13.03;2.05;;;23.10;99.90;;;;;;1934946;72;22145;-84
2022/10/21 01:53:29;;;;;;;14.40;2.45;;;23.10;99.90;;;;;;1891982;75;21131;-84
2022/10/21 01:56:22;;;;;;;10.63;2.47;;;23.10;99.90;;;;;;1883801;75;21102;-84
2022/10/21 01:59:16;;;;;;;13.08;3.02;;;23.10;99.90;;;;;;1894507;75;21061;-84
2022/10/21 02:04:51;;;;;;;15.18;3.25;;;23.10;99.90;;;;;;1942813;72;22134;-84
2022/10/21 02:07:43;;;;;;;12.07;2.75;;;23.10;99.90;;;;;;1895904;75;21150;-85
2022/10/21 02:10:37;;;;;;;12.93;3.05;;;23.20;99.90;;;;;;1898388;75;21133;-85
2022/10/21 02:13:32;;;;;;;9.90;3.20;;;23.10;99.90;;;;;;1896397;75;21164;-85
2022/10/21 02:16:27;;;;;;;10.70;2.40;;;23.10;99.90;;;;;;1895716;75;21100;-85
2022/10/21 02:19:20;;;;;;;10.50;2.40;;;23.10;99.90;;;;;;1884228;75;21121;-85
2022/10/21 02:24:55;;;;;;;12.00;2.90;;;23.10;99.90;;;;;;1950492;72;22254;-84
2022/10/21 02:27:46;;;;;;;9.30;2.37;;;23.10;99.90;;;;;;1920160;74;21092;-84
2022/10/21 02:30:40;;;;;;;11.90;2.60;;;23.10;99.90;;;;;;1905366;75;21459;-84
2022/10/21 02:33:37;;;;;;;13.00;2.70;;;23.10;99.90;;;;;;1905343;75;21138;-84
2022/10/21 02:36:35;;;;;;;12.73;3.43;;;23.00;99.90;;;;;;1905572;74;21063;-84
2022/10/21 02:39:30;;;;;;;14.65;3.12;;;23.00;99.90;;;;;;1905394;75;21044;-84
2022/10/21 02:45:02;;;;;;;14.10;3.10;;;23.00;99.90;;;;;;1948810;72;22187;-84
2022/10/21 02:47:53;;;;;;;14.28;3.20;;;23.10;99.90;;;;;;1905971;75;21404;-85
2022/10/21 02:50:45;;;;;;;13.68;2.67;;;23.10;99.90;;;;;;1907478;74;21179;-85
2022/10/21 02:56:17;;;;;;;19.35;3.17;;;23.10;99.90;;;;;;1952285;72;22150;-85
2022/10/21 02:59:09;;;;;;;11.38;2.80;;;23.20;99.90;;;;;;1885449;75;21102;-84
2022/10/21 03:02:00;;;;;;;11.18;2.83;;;23.10;99.90;;;;;;1890894;75;21557;-84
2022/10/21 03:04:52;;;;;;;10.85;2.47;;;23.00;99.90;;;;;;1896026;75;21180;-84
2022/10/21 03:07:43;;;;;;;14.25;3.10;;;23.00;99.90;;;;;;1890235;75;21087;-84
2022/10/21 03:10:34;;;;;;;14.68;2.83;;;23.10;99.90;;;;;;1900740;75;21131;-85
2022/10/21 03:13:26;;;;;;;11.97;2.90;;;23.20;99.90;;;;;;1882597;75;21105;-85
2022/10/21 03:16:17;;;;;;;11.88;3.30;;;23.10;99.90;;;;;;1851821;77;21102;-85
2022/10/21 03:21:46;;;;;;;12.78;2.85;;;23.10;99.90;;;;;;1941945;72;22173;-85
2022/10/21 03:24:37;;;;;;;11.08;2.75;;;23.10;99.90;;;;;;1888384;75;21079;-85
2022/10/21 03:27:29;;;;;;;17.15;3.58;;;23.10;99.90;;;;;;1872863;75;21087;-85
2022/10/21 03:30:21;;;;;;;18.02;3.70;;;23.10;99.90;;;;;;1873099;75;21098;-85
2022/10/21 03:33:13;;;;;;;13.72;3.12;;;23.10;99.90;;;;;;1890499;75;21055;-85
2022/10/21 03:36:06;;;;;;;14.33;3.40;;;23.10;99.90;;;;;;1881442;75;21047;-85
2022/10/21 03:38:58;;;;;;;18.75;2.90;;;23.20;99.90;;;;;;1889483;75;21076;-85
2022/10/21 03:41:49;;;;;;;12.03;2.52;;;23.20;99.90;;;;;;1872980;75;21168;-85
2022/10/21 03:44:41;;;;;;;15.98;3.40;;;23.20;99.90;;;;;;1890654;75;21088;-85
2022/10/21 03:50:12;;;;;;;19.07;3.22;;;23.20;99.90;;;;;;1937080;72;22240;-85
2022/10/21 03:53:05;;;;;;;12.10;2.95;;;23.10;99.90;;;;;;1887069;75;21075;-83
2022/10/21 03:55:58;;;;;;;12.40;2.60;;;23.10;99.90;;;;;;1882306;75;21149;-84
2022/10/21 03:58:49;;;;;;;13.25;2.90;;;23.20;99.90;;;;;;1886530;75;21050;-84
2022/10/21 04:04:20;;;;;;;15.93;3.15;;;23.20;99.90;;;;;;1956302;72;22121;-85
2022/10/21 04:07:11;;;;;;;14.58;3.35;;;23.30;99.90;;;;;;1887968;75;21106;-85
2022/10/21 04:10:03;;;;;;;15.05;3.12;;;23.30;99.90;;;;;;1904796;74;21083;-85
2022/10/21 04:12:54;;;;;;;16.60;3.45;;;23.20;99.90;;;;;;1901500;74;21491;-85
2022/10/21 04:15:45;;;;;;;13.22;2.65;;;23.20;99.90;;;;;;1904099;75;21102;-85
2022/10/21 04:18:36;;;;;;;15.72;3.35;;;23.30;99.90;;;;;;1893133;75;21107;-85
2022/10/21 04:21:27;;;;;;;9.88;2.83;;;23.20;99.90;;;;;;1901113;74;21216;-85
2022/10/21 04:24:19;;;;;;;15.63;3.30;;;23.20;99.90;;;;;;1896606;74;21121;-85
2022/10/21 04:27:11;;;;;;;12.98;3.10;;;23.20;99.90;;;;;;1855451;76;21054;-85
2022/10/21 04:30:02;;;;;;;12.43;3.10;;;23.20;99.90;;;;;;1835554;77;21102;-85
2022/10/21 04:32:53;;;;;;;18.27;3.05;;;23.20;99.90;;;;;;1903320;74;21189;-85
2022/10/21 04:35:45;;;;;;;15.23;3.30;;;23.20;99.90;;;;;;1891565;75;21066;-85
2022/10/21 04:38:36;;;;;;;13.53;3.17;;;23.20;99.90;;;;;;1887082;75;21120;-85
2022/10/21 04:41:28;;;;;;;16.27;3.30;;;23.20;99.90;;;;;;1879971;76;21088;-85
2022/10/21 04:44:19;;;;;;;12.13;2.67;;;23.20;99.90;;;;;;1834841;77;21085;-85
2022/10/21 04:49:53;;;;;;;17.15;3.30;;;23.20;99.90;;;;;;1953172;72;22229;-84
2022/10/21 04:52:45;;;;;;;11.78;2.77;;;23.20;99.90;;;;;;1919387;73;21113;-84
2022/10/21 04:55:37;;;;;;;12.35;3.27;;;23.10;99.90;;;;;;1922816;73;21558;-84
2022/10/21 04:58:29;;;;;;;17.07;3.58;;;23.10;99.90;;;;;;1919404;73;21088;-84
2022/10/21 05:01:20;;;;;;;20.88;3.45;;;23.10;99.90;;;;;;1913899;73;21105;-85
2022/10/21 05:06:50;;;;;;;14.23;3.27;;;23.10;99.90;;;;;;1941815;72;22095;-84
2022/10/21 05:09:41;;;;;;;16.50;3.33;;;23.10;99.90;;;;;;1877785;75;21124;-85
2022/10/21 05:12:33;;;;;;;13.85;3.10;;;23.30;99.90;;;;;;1874913;75;21546;-85
2022/10/21 05:15:26;;;;;;;13.95;3.42;;;23.20;99.90;;;;;;1886855;75;21092;-85
2022/10/21 05:18:18;;;;;;;14.58;3.40;;;23.10;99.90;;;;;;1892466;75;21140;-85
2022/10/21 05:21:09;;;;;;;12.85;3.05;;;23.00;99.90;;;;;;1883444;75;21092;-85
2022/10/21 05:24:00;;;;;;;20.27;3.58;;;22.90;99.90;;;;;;1872927;75;21177;-84
2022/10/21 05:26:52;;;;;;;19.30;3.40;;;23.00;99.90;;;;;;1888090;75;21138;-85
2022/10/21 05:29:45;;;;;;;9.65;2.72;;;23.00;99.90;;;;;;1878287;75;21500;-85
2022/10/21 05:32:37;;;;;;;11.53;2.98;;;23.00;99.90;;;;;;1873094;75;21158;-85
2022/10/21 05:35:29;;;;;;;11.20;2.52;;;23.00;99.90;;;;;;1881494;75;21135;-85
2022/10/21 05:38:20;;;;;;;12.58;3.00;;;23.00;99.90;;;;;;1892547;75;21090;-84
2022/10/21 05:43:51;;;;;;;13.15;3.10;;;23.00;99.90;;;;;;1919706;72;22318;-85
2022/10/21 05:49:20;;;;;;;13.62;2.62;;;22.90;99.90;;;;;;1947507;72;22193;-84
2022/10/21 05:54:51;;;;;;;13.60;2.58;;;22.90;99.90;;;;;;1939793;72;22224;-83
2022/10/21 06:00:32;;;;;;;11.65;2.72;;;22.80;99.90;;;;;;1950366;72;22158;-83
2022/10/21 06:03:24;;;;;;;11.22;2.62;;;22.80;99.90;;;;;;1922679;73;21212;-83
2022/10/21 06:06:15;;;;;;;14.35;3.22;;;22.80;99.90;;;;;;1917460;75;21188;-83
2022/10/21 06:09:06;;;;;;;10.88;2.67;;;22.80;99.90;;;;;;1929179;73;21083;-83
2022/10/21 06:11:58;;;;;;;8.83;2.62;;;22.60;99.90;;;;;;1939710;73;21219;-84
2022/10/21 06:14:49;;;;;;;12.43;2.75;;;22.60;99.90;;;;;;1921796;73;21087;-83
2022/10/21 06:17:40;;;;;;;12.00;2.98;;;22.50;99.90;;;;;;1928869;73;21621;-83
2022/10/21 06:20:32;;;;;;;10.15;2.87;;;22.60;99.90;;;;;;1917375;75;21215;-83
2022/10/21 06:23:24;;;;;;;11.88;2.90;;;22.50;99.90;;;;;;1937173;73;21179;-84
2022/10/21 06:26:17;;;;;;;11.78;2.37;;;22.50;99.90;;;;;;1940622;73;21425;-83
2022/10/21 06:29:08;;;;;;;12.78;2.95;;;22.40;99.90;;;;;;1927461;73;21165;-84
2022/10/21 06:34:39;;;;;;;9.68;2.60;;;22.10;99.90;;;;;;1946654;72;22235;-84
2022/10/21 06:40:11;;;;;;;9.13;2.50;;;21.80;99.90;;;;;;1934563;72;22940;-84
2022/10/21 06:43:02;;;;;;;12.05;2.65;;;21.70;99.90;;;;;;1909127;75;21633;-84
2022/10/21 06:45:59;;;;;;;14.80;3.20;;;21.60;99.90;;;;;;1906839;73;21027;-84
2022/10/21 06:48:51;;;;;;;11.57;3.00;;;21.50;99.90;;;;;;1912107;73;21161;-84
2022/10/21 06:54:21;;;;;;;13.88;2.77;;;21.30;99.90;;;;;;1951639;72;22252;-84
2022/10/21 06:57:13;;;;;;;12.13;3.20;;;21.30;99.90;;;;;;1906465;75;21163;-84
2022/10/21 07:00:04;;;;;;;14.38;3.45;;;21.30;99.90;;;;;;1884554;75;21090;-84
2022/10/21 07:02:56;;;;;;;12.30;2.85;;;21.30;99.90;;;;;;1900686;75;21555;-84
2022/10/21 07:05:47;;;;;;;12.73;3.27;;;21.20;99.90;;;;;;1888464;75;21168;-84
2022/10/21 07:08:39;;;;;;;10.50;3.25;;;21.10;99.90;;;;;;1903087;75;21120;-84
2022/10/21 07:11:31;;;;;;;11.88;3.30;;;21.00;99.90;;;;;;1898223;75;21514;-84
2022/10/21 07:14:24;;;;;;;14.05;3.72;;;20.80;99.90;;;;;;1887146;75;21239;-84
2022/10/21 07:19:54;;;;;;;13.65;3.37;;;20.60;99.90;;;;;;1941296;72;22244;-84
2022/10/21 07:22:45;;;;;;;9.73;2.62;;;20.50;99.90;;;;;;1887544;75;21178;-76
2022/10/21 07:25:37;;;;;;;10.35;3.02;;;20.40;99.90;;;;;;1872793;75;21172;-75
2022/10/21 07:28:28;;;;;;;10.18;3.20;;;20.30;99.90;;;;;;1897631;75;21444;-77
2022/10/21 07:31:21;;;;;;;11.88;3.30;;;20.10;99.90;;;;;;1881867;75;21172;-76
2022/10/21 07:34:13;;;;;;;15.00;3.25;;;19.90;99.90;;;;;;1872892;75;21059;-76
2022/10/21 07:39:46;;;;;;;15.32;4.45;;;19.70;99.90;;;;;;1932412;72;22175;-77
2022/10/21 07:45:16;;;;;;;11.93;3.90;;;19.70;99.90;;;;;;1940151;72;22114;-78
2022/10/21 07:50:57;;;;;;;14.18;4.10;;;19.40;99.90;;;;;;1933525;72;22093;-76
2022/10/21 07:53:50;;;;;;;14.75;4.17;;;19.40;99.90;;;;;;1916091;74;21577;-76
2022/10/21 07:56:48;;;;;;;17.15;4.40;;;19.30;99.90;;;;;;1900135;75;21119;-77
2022/10/21 07:59:41;;;;;;;14.90;3.92;;;19.30;99.90;;;;;;1908470;75;21247;-76
2022/10/21 08:05:13;;;;;;;14.28;4.03;;;19.10;99.90;;;;;;1934139;72;22215;-85
2022/10/21 08:08:04;;;;;;;13.43;3.75;;;18.80;99.90;;;;;;1883238;74;21161;-85
2022/10/21 08:10:56;;;;;;;11.85;3.70;;;18.70;99.90;;;;;;1892642;75;21537;-85
2022/10/21 08:16:29;;;;;;;16.80;5.17;;;18.60;99.90;;;;;;1943795;72;22142;-84
2022/10/21 08:19:28;;;;;;;19.70;4.87;;;18.50;99.90;;;;;;1924514;73;21171;-84
2022/10/21 08:24:55;;;;;;;16.85;5.25;;;18.40;99.90;;;;;;1944356;72;22160;-85
2022/10/21 08:30:30;;;;;;;20.70;5.20;;;18.30;99.90;;;;;;1962821;72;22168;-86
2022/10/21 08:33:21;;;;;;;20.43;5.05;;;18.40;99.90;;;;;;1929630;73;21192;-85
2022/10/21 08:36:15;;;;;;;19.80;5.53;;;18.30;99.90;;;;;;1916757;75;21107;-84
2022/10/21 08:44:42;;;;;;;16.05;5.22;;;18.00;99.90;;;;;;1948767;72;22150;-86
2022/10/21 08:47:36;;;;;;;19.87;6.62;;;17.90;99.90;;;;;;1918810;73;21103;-86
2022/10/21 08:53:17;;;;;;;15.48;5.55;;;17.80;99.90;;;;;;1941933;72;22186;-84
2022/10/21 08:56:13;;;;;;;13.32;5.28;;;17.80;99.90;;;;;;1906372;75;21095;-84
2022/10/21 08:59:12;;;;;;;12.50;4.55;;;17.70;99.90;;;;;;1910404;75;21216;-84
2022/10/21 09:02:06;;;;;;;16.37;4.25;;;17.70;99.90;;;;;;1889515;75;21106;-84
2022/10/21 09:05:05;;;;;;;12.75;4.40;;;17.70;99.90;;;;;;1897784;75;21140;-83
2022/10/21 09:08:03;;;;;;;15.75;6.12;;;17.70;99.90;;;;;;1897463;74;21094;-83
2022/10/21 09:11:02;;;;;;;15.98;5.05;;;17.70;99.90;;;;;;1906214;75;21166;-84
2022/10/21 09:19:45;;;;;;;11.18;4.40;;;17.80;99.90;;;;;;1963865;72;22182;-83
2022/10/21 09:25:26;;;;;;;13.28;4.60;;;17.90;99.90;;;;;;1950555;72;22135;-83
2022/10/21 09:28:17;;;;;;;12.18;3.87;;;17.90;99.90;;;;;;1893039;75;21065;-84
2022/10/21 09:31:18;;;;;;;16.00;4.75;;;17.90;99.90;;;;;;1899613;73;21134;-83
2022/10/21 09:37:02;;;;;;;14.78;4.30;;;17.90;99.90;;;;;;1950522;72;22585;-84
2022/10/21 09:40:00;;;;;;;13.25;4.05;;;17.90;99.90;;;;;;1906541;75;21133;-85
2022/10/21 09:42:54;;;;;;;14.75;4.62;;;17.90;99.90;;;;;;1905840;73;21047;-86
2022/10/21 09:45:47;;;;;;;11.45;4.62;;;17.90;99.90;;;;;;1887471;75;21533;-83
2022/10/21 09:48:42;;;;;;;10.38;4.08;;;18.00;99.90;;;;;;1907538;75;21606;-84
2022/10/21 09:54:20;;;;;;;15.50;5.17;;;18.00;99.90;;;;;;1949471;72;22254;-85
2022/10/21 09:59:54;;;;;;;13.25;4.85;;;17.90;99.90;;;;;;1942149;72;22272;-83
2022/10/21 10:05:39;;;;;;;15.40;4.37;;;17.80;99.90;;;;;;1954217;72;22126;-83
2022/10/21 10:08:34;;;;;;;13.95;5.60;;;17.90;99.90;;;;;;1907970;73;21077;-84
2022/10/21 10:11:25;;;;;;;12.55;4.85;;;17.90;99.90;;;;;;1892020;75;21542;-84
2022/10/21 10:14:32;;;;;;;12.85;4.87;;;18.00;99.90;;;;;;1889745;73;21133;-85
2022/10/21 10:20:17;;;;;;;16.02;6.83;;;17.90;99.90;;;;;;1952312;72;22102;-85
2022/10/21 10:23:18;;;;;;;16.50;7.08;;;17.80;99.90;;;;;;1932742;73;21636;-84
2022/10/21 10:26:10;;;;;;;13.80;5.42;;;17.80;99.90;;;;;;1920399;73;21062;-84
2022/10/21 10:29:05;;;;;;;19.02;5.53;;;17.80;99.90;;;;;;1921823;73;21126;-85
2022/10/21 10:31:58;;;;;;;16.23;5.92;;;17.70;99.90;;;;;;1914840;73;21102;-84
2022/10/21 10:34:56;;;;;;;12.95;6.03;;;17.70;99.90;;;;;;1917555;73;21116;-86
2022/10/21 10:40:40;;;;;;;14.65;6.03;;;17.80;99.90;;;;;;1953194;72;22139;-86
2022/10/21 10:43:34;;;;;;;16.02;6.33;;;17.90;99.90;;;;;;1902297;75;21176;-84
2022/10/21 10:46:28;;;;;;;16.57;5.92;;;17.80;99.90;;;;;;1897017;75;21141;-84
2022/10/21 10:49:22;;;;;;;17.65;6.40;;;17.80;99.90;;;;;;1908220;75;21217;-85
2022/10/21 10:52:22;;;;;;;13.90;5.12;;;17.80;99.90;;;;;;1905196;75;21224;-84
2022/10/21 10:55:19;;;;;;;13.32;5.40;;;17.70;99.90;;;;;;1895705;75;21102;-85
2022/10/21 10:58:11;;;;;;;11.38;3.90;;;17.70;99.90;;;;;;1905484;75;21055;-85
2022/10/21 11:01:07;;;;;;;9.03;3.85;;;17.70;99.90;;;;;;1905094;75;21168;-84
2022/10/21 11:09:27;;;;;;;13.93;4.83;;;17.90;99.90;;;;;;1950918;72;22140;-85
2022/10/21 11:12:22;;;;;;;10.95;4.55;;;17.90;99.90;;;;;;1917426;75;21147;-87
2022/10/21 11:15:15;;;;;;;9.45;4.28;;;17.90;99.90;;;;;;1927086;73;21367;-86
2022/10/21 11:21:12;;;;;;;12.88;5.33;;;17.90;99.90;;;;;;1940191;72;38340;-85
2022/10/21 11:24:22;;;;;;;11.35;4.40;;;18.10;99.90;;;;;;1919716;73;21059;-85
2022/10/21 11:27:18;;;;;;;8.70;4.33;;;18.10;99.90;;;;;;1944525;73;21710;-84
2022/10/21 11:30:16;;;;;;;8.23;3.62;;;18.20;99.90;;;;;;1930474;73;21135;-84
2022/10/21 11:33:14;;;;;;;8.35;4.37;;;18.20;99.90;;;;;;1927082;73;21577;-84
2022/10/21 11:36:09;;;;;;;9.70;3.98;;;18.30;99.90;;;;;;1939989;73;21204;-84
2022/10/21 11:39:22;;;;;;;10.08;3.92;;;18.20;99.90;;;;;;1931123;73;21212;-85
2022/10/21 11:42:22;;;;;;;9.55;3.90;;;18.10;99.90;;;;;;1932441;73;21237;-85
2022/10/21 11:48:52;;;;;;;17.50;5.58;;;18.00;99.90;;;;;;1949874;72;22307;-87
2022/10/21 11:51:48;;;;;;;14.58;4.92;;;18.00;99.90;;;;;;1928688;73;21131;-87
2022/10/21 11:54:50;;;;;;;16.50;4.92;;;18.00;99.90;;;;;;1933936;73;21059;-84
2022/10/21 11:57:49;;;;;;;8.30;3.95;;;17.90;99.90;;;;;;1920979;73;21179;-85
2022/10/21 12:03:50;;;;;;;10.68;4.03;;;18.00;99.90;;;;;;1949028;72;22257;-86
2022/10/21 12:06:44;;;;;;;11.25;4.10;;;18.10;99.90;;;;;;1924667;73;21108;-85
2022/10/21 12:12:21;;;;;;;8.28;3.37;;;18.10;99.90;;;;;;1942817;72;22125;-84
2022/10/21 12:17:55;;;;;;;8.63;3.87;;;18.10;99.90;;;;;;1934316;72;22240;-85
2022/10/21 12:20:49;;;;;;;8.83;4.05;;;18.10;99.90;;;;;;1895046;75;21212;-85
2022/10/21 12:23:40;;;;;;;9.95;3.92;;;18.10;99.90;;;;;;1886408;75;21494;-85
2022/10/21 12:26:36;;;;;;;12.43;4.25;;;18.20;99.90;;;;;;1905342;75;21138;-85
2022/10/21 12:29:36;;;;;;;10.85;4.03;;;18.20;99.90;;;;;;1899151;75;21111;-85
2022/10/21 12:32:31;;;;;;;7.55;3.83;;;18.20;99.90;;;;;;1901728;75;21215;-85
2022/10/21 12:38:14;;;;;;;8.33;3.65;;;18.10;99.90;;;;;;1945722;72;22154;-85
2022/10/21 12:41:33;;;;;;;11.20;4.58;;;18.10;99.90;;;;;;1917190;75;21091;-85
2022/10/21 12:44:27;;;;;;;10.00;3.87;;;18.10;99.90;;;;;;1936333;73;21062;-85
2022/10/21 12:47:28;;;;;;;9.38;3.67;;;18.10;99.90;;;;;;1923041;73;21098;-85
2022/10/21 12:50:27;;;;;;;10.35;4.00;;;18.10;99.90;;;;;;1921069;73;21127;-86
2022/10/21 12:53:32;;;;;;;8.90;3.95;;;18.00;99.90;;;;;;1932685;73;21220;-87
2022/10/21 12:56:30;;;;;;;8.30;3.60;;;18.00;99.90;;;;;;1938951;73;21494;-86
2022/10/21 12:59:34;;;;;;;6.70;2.95;;;17.90;99.90;;;;;;1917917;75;21122;-86
2022/10/21 13:02:27;;;;;;;7.20;2.95;;;17.90;99.90;;;;;;1923494;73;21121;-84
2022/10/21 13:08:52;;;;;;;7.15;2.72;;;17.90;99.90;;;;;;1990713;71;22225;-87
2022/10/21 13:14:39;;;;;;;5.75;2.00;;;17.90;99.90;;;;;;1942212;72;22165;-87
2022/10/21 13:20:47;;;;;;;8.08;1.82;;;17.80;99.90;;;;;;1942643;72;22274;-86
2022/10/21 13:23:44;;;;;;;5.00;1.87;;;17.80;99.90;;;;;;1906404;75;21523;-85
2022/10/21 13:26:36;;;;;;;8.35;2.27;;;17.80;99.90;;;;;;1894134;75;21082;-85
2022/10/21 13:29:46;;;;;;;6.30;1.85;;;17.70;99.90;;;;;;1896698;74;21348;-86
2022/10/21 13:35:32;;;;;;;5.28;1.98;;;17.70;99.90;;;;;;1937301;72;22178;-85
2022/10/21 13:38:26;;;;;;;6.25;2.55;;;17.70;99.90;;;;;;1891157;75;21071;-86
2022/10/21 13:41:23;;;;;;;4.95;2.30;;;17.60;99.90;;;;;;1894192;73;21158;-85
2022/10/21 13:44:25;;;;;;;5.15;2.27;;;17.60;99.90;;;;;;1904056;73;21124;-85
2022/10/21 13:47:30;;;;;;;7.08;2.60;;;17.60;99.90;;;;;;1888272;75;21205;-86
2022/10/21 13:50:27;;;;;;;7.97;4.75;;;17.60;99.90;;;;;;1876135;75;21087;-85
2022/10/21 13:56:22;;;;;;;8.13;2.72;;;17.70;99.90;;;;;;1931606;72;22609;-84
2022/10/21 13:59:23;;;;;;;8.13;2.15;;;17.70;99.90;;;;;;1895875;75;21103;-85
2022/10/21 14:02:27;;;;;;;6.33;2.42;;;17.60;99.90;;;;;;1895075;73;21197;-85
2022/10/21 14:05:30;;;;;;;7.00;2.10;;;17.60;99.90;;;;;;1875350;75;21077;-85
2022/10/21 14:08:27;;;;;;;8.03;1.87;;;17.60;99.90;;;;;;1897571;75;21124;-85
2022/10/21 14:11:21;;;;;;;5.10;2.02;;;17.70;99.90;;;;;;1902610;75;21094;-87
2022/10/21 14:14:17;;;;;;;5.33;2.02;;;17.60;99.90;;;;;;1893555;75;21175;-85
2022/10/21 14:17:11;;;;;;;6.25;2.58;;;17.60;99.90;;;;;;1907477;75;21095;-85
2022/10/21 14:20:07;;;;;;;5.70;1.80;;;17.60;99.90;;;;;;1896638;75;21240;-85
2022/10/21 14:23:00;;;;;;;4.95;1.87;;;17.60;99.90;;;;;;1897853;75;21090;-85
2022/10/21 14:25:52;;;;;;;4.67;2.00;;;17.70;99.90;;;;;;1896932;75;21086;-85
2022/10/21 14:28:45;;;;;;;6.17;2.45;;;17.70;99.90;;;;;;1889987;75;21066;-86
2022/10/21 14:31:37;;;;;;;6.10;2.72;;;17.70;99.90;;;;;;1908914;75;21071;-85
2022/10/21 14:34:32;;;;;;;6.17;2.40;;;17.60;99.90;;;;;;1876533;75;21101;-85
2022/10/21 14:37:24;;;;;;;8.50;2.20;;;17.50;99.90;;;;;;1905014;75;21061;-85
2022/10/21 14:40:25;;;;;;;7.45;2.67;;;17.50;99.90;;;;;;1900555;75;21195;-84
2022/10/21 14:43:21;;;;;;;6.47;2.22;;;17.50;99.90;;;;;;1877396;74;21049;-85
2022/10/21 14:46:13;;;;;;;6.55;2.90;;;17.50;99.90;;;;;;1897902;75;21117;-85
2022/10/21 14:49:05;;;;;;;5.45;1.87;;;17.50;99.90;;;;;;1902757;75;21051;-85
2022/10/21 14:52:02;;;;;;;6.33;2.33;;;17.50;99.90;;;;;;1888111;75;21044;-85
2022/10/21 14:54:58;;;;;;;5.50;1.92;;;17.50;99.90;;;;;;1907941;74;21603;-85
2022/10/21 14:57:51;;;;;;;6.30;1.70;;;17.50;99.90;;;;;;1901049;75;21051;-85
2022/10/21 15:00:43;;;;;;;8.13;2.02;;;17.60;99.90;;;;;;1834215;77;21065;-85
2022/10/21 15:03:40;;;;;;;7.87;2.20;;;17.60;99.90;;;;;;1892817;75;21457;-85
2022/10/21 15:06:33;;;;;;;3.90;1.82;;;17.50;99.90;;;;;;1896222;75;21264;-85
2022/10/21 15:09:25;;;;;;;6.75;2.58;;;17.60;99.90;;;;;;1889953;75;21063;-85
2022/10/21 15:12:20;;;;;;;5.08;3.17;;;17.50;99.90;;;;;;1891141;75;21159;-85
2022/10/21 15:15:47;;;;;;;6.10;2.75;;;17.50;99.90;;;;;;1884261;75;21096;-85
2022/10/21 15:18:46;;;;;;;6.95;3.35;;;17.60;99.90;;;;;;1891027;75;21093;-85
2022/10/21 15:21:39;;;;;;;4.35;2.72;;;17.60;99.90;;;;;;1896258;75;21115;-85
2022/10/21 15:24:42;;;;;;;6.62;3.22;;;17.60;99.90;;;;;;1894310;75;21095;-85
2022/10/21 15:27:37;;;;;;;5.95;2.40;;;17.60;99.90;;;;;;1825255;77;21196;-85
2022/10/21 15:30:33;;;;;;;6.25;2.90;;;17.50;99.90;;;;;;1825738;78;21276;-85
2022/10/21 15:33:22;;;;;;;3.22;2.00;;;17.50;99.90;;;;;;1825582;78;21090;-84
2022/10/21 15:36:14;;;;;;;7.65;2.40;;;17.60;99.90;;;;;;1836227;77;21074;-86
2022/10/21 15:39:06;;;;;;;6.05;1.90;;;17.50;99.90;;;;;;1842819;77;21061;-85
2022/10/21 15:42:00;;;;;;;5.47;2.17;;;17.50;99.90;;;;;;1849384;76;21261;-85
2022/10/21 15:44:52;;;;;;;4.85;2.22;;;17.50;99.90;;;;;;1822362;78;21142;-85
2022/10/21 15:47:44;;;;;;;4.95;2.30;;;17.40;99.90;;;;;;1835524;77;21179;-86
2022/10/21 15:50:37;;;;;;;5.03;2.02;;;17.40;99.90;;;;;;1843630;76;21118;-86
2022/10/21 15:53:28;;;;;;;5.50;2.12;;;17.40;99.90;;;;;;1835321;77;21070;-85
2022/10/21 15:56:21;;;;;;;3.83;1.82;;;17.40;99.90;;;;;;1836258;77;21087;-86
2022/10/21 15:59:17;;;;;;;4.50;2.52;;;17.40;99.90;;;;;;1841620;76;21120;-86
2022/10/21 16:02:13;;;;;;;4.67;2.50;;;17.40;99.90;;;;;;1803289;78;21214;-85
2022/10/21 16:05:07;;;;;;;7.58;2.58;;;17.40;99.90;;;;;;1839133;77;21126;-86
2022/10/21 16:07:59;;;;;;;8.75;1.87;;;17.40;99.90;;;;;;1833648;77;21139;-87
2022/10/21 16:10:50;;;;;;;6.83;2.00;;;17.40;99.90;;;;;;1845524;77;21137;-86
2022/10/21 16:13:41;;;;;;;4.60;2.12;;;17.50;99.90;;;;;;1829499;76;21141;-87
2022/10/21 16:16:33;;;;;;;9.83;3.37;;;17.50;99.90;;;;;;1833976;77;21266;-86
2022/10/21 16:19:24;;;;;;;7.95;3.35;;;17.50;99.90;;;;;;1840003;76;21149;-86
2022/10/21 16:24:53;;;;;;;4.75;2.70;;;17.40;99.90;;;;;;1939395;72;22221;-88
2022/10/21 16:27:45;;;;;;;4.40;2.27;;;17.30;99.90;;;;;;1891790;75;21051;-86
2022/10/21 16:30:40;;;;;;;8.73;2.85;;;17.30;99.90;;;;;;1897914;75;21220;-87
2022/10/21 16:33:31;;;;;;;7.50;3.62;;;17.20;99.90;;;;;;1858018;76;21233;-86
2022/10/21 16:39:15;;;;;;;6.28;2.90;;;17.30;99.90;;;;;;1957134;72;22728;-86
2022/10/21 16:44:45;;;;;;;4.78;2.42;;;17.10;99.90;;;;;;1929701;72;22241;-85
2022/10/21 16:47:37;;;;;;;6.87;3.08;;;17.00;99.90;;;;;;1896611;75;21098;-86
2022/10/21 16:50:32;;;;;;;6.35;3.37;;;17.00;99.90;;;;;;1896757;75;21177;-86
2022/10/21 16:53:27;;;;;;;8.58;4.80;;;17.00;99.90;;;;;;1897712;75;21100;-86
2022/10/21 16:56:17;;;;;;;10.08;5.40;;;17.10;99.90;;;;;;1897987;75;21129;-86
2022/10/21 16:59:08;;;;;;;4.78;3.30;;;17.10;99.90;;;;;;1906811;75;21115;-85
2022/10/21 17:02:00;;;;;;;7.25;3.00;;;17.10;99.90;;;;;;1893534;75;21165;-86
2022/10/21 17:04:51;;;;;;;7.33;3.17;;;17.00;99.90;;;;;;1908308;75;21093;-85
2022/10/21 17:07:42;;;;;;;6.47;3.22;;;17.00;99.90;;;;;;1904587;75;21076;-85
2022/10/21 17:10:34;;;;;;;5.05;3.50;;;17.00;99.90;;;;;;1889497;75;21175;-85
2022/10/21 17:13:25;;;;;;;10.30;4.67;;;17.00;99.90;;;;;;1898325;75;21059;-85
2022/10/21 17:16:19;;;;;;;9.83;4.62;;;17.00;99.90;;;;;;1898300;75;21114;-85
2022/10/21 17:19:10;;;;;;;8.73;4.00;;;16.90;99.90;;;;;;1907337;75;21197;-85
2022/10/21 17:24:40;;;;;;;10.10;5.45;;;16.90;99.90;;;;;;1944373;72;22302;-87
2022/10/21 17:30:14;;;;;;;17.87;10.15;;;16.90;99.90;;;;;;1939430;72;22130;-84
2022/10/21 17:33:05;;;;;;;13.22;8.30;;;17.00;99.90;;;;;;1898534;75;21124;-84
2022/10/21 17:35:58;;;;;;;9.80;5.30;;;17.00;99.90;;;;;;1864928;76;21071;-84
2022/10/21 17:38:49;;;;;;;11.80;7.28;;;17.00;99.90;;;;;;1901066;75;21339;-84
2022/10/21 17:41:41;;;;;;;17.50;8.58;;;16.90;99.90;;;;;;1906344;75;21087;-84
2022/10/21 17:44:32;;;;;;;13.95;8.00;;;16.90;99.90;;;;;;1904253;75;21293;-84
2022/10/21 17:47:24;;;;;;;9.63;5.28;;;17.00;99.90;;;;;;1891385;75;21122;-84
2022/10/21 17:50:22;;;;;;;11.10;5.92;;;17.00;99.90;;;;;;1899790;75;21128;-84